Time;durP1;ratioP1;P1;durP2;ratioP2;P2;SDS_P1;SDS_P2;PMS_P1;PMS_P2;Temp;Humidity;BMP_temperature;BMP_pressure;BME280_temperature;BME280_humidity;BME280_pressure;Samples;Min_cycle;Max_cycle;Signal;HPM_P1;HPM_P2
2023/01/20 00:01:13;;;;;;;2.78;1.17;;;19.40;56.50;;;;;;5051384;28;20055;-62
2023/01/20 00:03:39;;;;;;;3.70;1.50;;;19.30;56.50;;;;;;5050713;28;20041;-63
2023/01/20 00:06:05;;;;;;;3.22;1.38;;;19.30;56.50;;;;;;5052117;28;20083;-63
2023/01/20 00:08:30;;;;;;;3.72;1.75;;;19.30;56.50;;;;;;5046157;28;20076;-63
2023/01/20 00:10:56;;;;;;;3.28;1.65;;;19.30;56.90;;;;;;5052397;28;20041;-63
2023/01/20 00:13:21;;;;;;;3.95;1.58;;;19.30;56.50;;;;;;5051457;28;20128;-63
2023/01/20 00:15:47;;;;;;;2.60;1.30;;;19.30;56.50;;;;;;5051038;28;20053;-63
2023/01/20 00:18:13;;;;;;;2.35;1.60;;;19.30;56.50;;;;;;5051875;28;20489;-63
2023/01/20 00:20:39;;;;;;;2.70;1.30;;;19.30;56.60;;;;;;5051674;28;20045;-63
2023/01/20 00:23:04;;;;;;;4.35;1.50;;;19.30;56.50;;;;;;5051105;28;20452;-63
2023/01/20 00:25:30;;;;;;;3.97;1.65;;;19.20;56.50;;;;;;5051664;28;20131;-63
2023/01/20 00:27:55;;;;;;;3.45;1.50;;;19.20;56.50;;;;;;5052182;28;20041;-62
2023/01/20 00:30:21;;;;;;;3.55;1.30;;;19.20;56.50;;;;;;5050800;28;20067;-63
2023/01/20 00:32:47;;;;;;;4.43;2.03;;;19.20;56.50;;;;;;5051515;28;20064;-63
2023/01/20 00:35:12;;;;;;;3.65;1.50;;;19.20;56.50;;;;;;5051531;28;20095;-63
2023/01/20 00:37:38;;;;;;;3.42;1.55;;;19.20;56.50;;;;;;5051246;28;20552;-63
2023/01/20 00:40:04;;;;;;;3.42;1.10;;;19.20;56.50;;;;;;5051961;28;20091;-62
2023/01/20 00:42:30;;;;;;;3.28;1.55;;;19.20;56.50;;;;;;5051539;28;20029;-62
2023/01/20 00:44:55;;;;;;;2.67;1.40;;;19.10;56.40;;;;;;5050979;28;20404;-62
2023/01/20 00:47:21;;;;;;;3.20;1.48;;;19.10;56.40;;;;;;5051632;28;20433;-63
2023/01/20 00:49:47;;;;;;;4.90;1.65;;;19.10;56.40;;;;;;5051326;28;20246;-62
2023/01/20 00:52:12;;;;;;;3.05;1.40;;;19.10;56.40;;;;;;5050516;28;20048;-62
2023/01/20 00:54:38;;;;;;;4.13;1.38;;;19.10;56.40;;;;;;5051921;28;20049;-62
2023/01/20 00:57:03;;;;;;;3.88;1.40;;;19.10;56.40;;;;;;5051617;28;20037;-62
2023/01/20 00:59:29;;;;;;;3.10;1.17;;;19.10;56.40;;;;;;5050143;28;20052;-62
2023/01/20 01:01:55;;;;;;;2.95;1.40;;;19.10;56.40;;;;;;5051494;28;20091;-62
2023/01/20 01:04:20;;;;;;;3.20;1.45;;;19.10;56.40;;;;;;5051082;28;20389;-62
2023/01/20 01:06:46;;;;;;;2.88;1.27;;;19.00;56.40;;;;;;5050771;28;20059;-63
2023/01/20 01:09:11;;;;;;;3.90;1.90;;;19.00;56.40;;;;;;5051291;28;20516;-62
2023/01/20 01:11:37;;;;;;;3.65;1.40;;;19.00;56.40;;;;;;5051016;28;20052;-62
2023/01/20 01:14:02;;;;;;;4.68;1.52;;;19.00;56.40;;;;;;5051156;28;20053;-62
2023/01/20 01:16:28;;;;;;;3.22;1.38;;;19.00;56.40;;;;;;5053507;28;20048;-62
2023/01/20 01:18:53;;;;;;;3.03;1.48;;;19.00;56.40;;;;;;5054281;28;20367;-62
2023/01/20 01:21:19;;;;;;;2.15;1.30;;;19.00;56.40;;;;;;5055103;28;20114;-62
2023/01/20 01:23:45;;;;;;;3.20;1.20;;;19.00;56.40;;;;;;5054997;28;20507;-62
2023/01/20 01:26:10;;;;;;;3.63;1.20;;;19.00;56.40;;;;;;5054078;28;20132;-62
2023/01/20 01:28:36;;;;;;;3.85;1.30;;;18.90;56.40;;;;;;5055088;28;20116;-62
2023/01/20 01:31:02;;;;;;;4.15;1.50;;;19.00;56.40;;;;;;5054932;28;20037;-62
2023/01/20 01:33:28;;;;;;;4.35;1.27;;;18.90;56.30;;;;;;5053799;28;20480;-63
2023/01/20 01:35:55;;;;;;;3.67;1.85;;;19.00;56.30;;;;;;5054682;28;20082;-63
2023/01/20 01:38:21;;;;;;;2.72;1.30;;;18.90;56.30;;;;;;5054559;28;20048;-63
2023/01/20 01:40:50;;;;;;;3.88;1.35;;;18.90;56.30;;;;;;5054272;28;20046;-62
2023/01/20 01:43:24;;;;;;;4.43;1.60;;;18.90;56.30;;;;;;5054446;28;20048;-62
2023/01/20 01:45:49;;;;;;;3.28;1.35;;;18.90;56.30;;;;;;5049282;28;20041;-62
2023/01/20 01:48:15;;;;;;;2.38;1.42;;;18.90;56.30;;;;;;5053699;28;20125;-62
2023/01/20 01:50:52;;;;;;;3.50;1.30;;;18.90;56.30;;;;;;5036823;28;20049;-62
2023/01/20 01:53:18;;;;;;;2.42;1.10;;;18.90;56.30;;;;;;5052853;28;20040;-62
2023/01/20 01:55:47;;;;;;;4.07;1.40;;;18.90;56.40;;;;;;5053493;28;20049;-63
2023/01/20 01:58:15;;;;;;;3.28;1.23;;;18.80;56.30;;;;;;5052879;28;20051;-62
2023/01/20 02:00:40;;;;;;;2.58;1.30;;;18.90;56.30;;;;;;5054616;28;20037;-62
2023/01/20 02:03:06;;;;;;;2.33;1.27;;;18.90;56.30;;;;;;5035735;28;20393;-62
2023/01/20 02:05:32;;;;;;;3.00;1.40;;;18.80;56.20;;;;;;5053890;28;20037;-63
2023/01/20 02:07:58;;;;;;;3.08;1.35;;;18.80;56.20;;;;;;5052031;28;20087;-63
2023/01/20 02:10:24;;;;;;;2.67;1.38;;;18.80;56.20;;;;;;5053847;28;20392;-63
2023/01/20 02:12:50;;;;;;;2.33;1.17;;;18.80;56.20;;;;;;5052777;28;20044;-63
2023/01/20 02:15:16;;;;;;;2.95;1.13;;;18.80;56.20;;;;;;5051493;28;20057;-62
2023/01/20 02:17:59;;;;;;;2.42;1.10;;;18.80;56.20;;;;;;5052585;28;20480;-62
2023/01/20 02:20:56;;;;;;;2.67;1.33;;;18.80;56.20;;;;;;5053726;28;20068;-63
2023/01/20 02:23:53;;;;;;;2.80;1.10;;;18.90;56.20;;;;;;5044592;28;20060;-63
2023/01/20 02:26:28;;;;;;;3.05;1.30;;;18.80;56.20;;;;;;5052519;28;20489;-62
2023/01/20 02:29:20;;;;;;;2.08;1.10;;;18.80;56.20;;;;;;5052621;28;20041;-62
2023/01/20 02:32:01;;;;;;;3.38;1.20;;;18.80;56.20;;;;;;5052364;28;20421;-63
2023/01/20 02:34:50;;;;;;;3.75;1.30;;;18.80;56.10;;;;;;5052412;28;20045;-62
2023/01/20 02:37:18;;;;;;;2.20;1.00;;;18.80;56.10;;;;;;5051557;28;20044;-62
2023/01/20 02:39:50;;;;;;;2.08;1.10;;;18.80;56.20;;;;;;5052371;28;20052;-62
2023/01/20 02:42:25;;;;;;;2.28;0.90;;;18.80;56.20;;;;;;5068702;28;20400;-63
2023/01/20 02:45:41;;;;;;;2.15;1.13;;;18.80;56.20;;;;;;5051616;28;20053;-62
2023/01/20 02:48:23;;;;;;;3.33;1.33;;;18.80;56.20;;;;;;5049644;28;20174;-62
2023/01/20 02:51:00;;;;;;;2.47;1.38;;;18.80;56.20;;;;;;5051455;28;20056;-62
2023/01/20 02:53:27;;;;;;;3.05;1.15;;;18.80;56.20;;;;;;5051720;28;20509;-63
2023/01/20 02:55:52;;;;;;;1.92;0.90;;;18.80;56.20;;;;;;5051968;28;20440;-62
2023/01/20 02:58:36;;;;;;;2.17;1.15;;;18.80;56.20;;;;;;5050941;28;20484;-62
2023/01/20 03:01:06;;;;;;;2.15;1.10;;;18.80;56.20;;;;;;5051895;28;20045;-62
2023/01/20 03:03:36;;;;;;;2.50;1.00;;;18.80;56.20;;;;;;5051960;28;20041;-62
2023/01/20 03:06:04;;;;;;;3.83;1.17;;;18.80;56.10;;;;;;5050576;28;20103;-63
2023/01/20 03:08:30;;;;;;;2.20;1.00;;;18.80;56.10;;;;;;5046319;28;20484;-62
2023/01/20 03:10:58;;;;;;;1.85;1.00;;;18.80;56.10;;;;;;5051649;28;20072;-62
2023/01/20 03:13:44;;;;;;;2.47;1.00;;;18.90;56.10;;;;;;5050402;28;20089;-62
2023/01/20 03:16:13;;;;;;;2.03;0.88;;;18.90;56.10;;;;;;5051037;28;20519;-62
2023/01/20 03:18:39;;;;;;;1.58;1.00;;;18.90;56.10;;;;;;5052068;28;20116;-62
2023/01/20 03:21:05;;;;;;;3.78;0.98;;;18.90;56.10;;;;;;5062193;28;20449;-62
2023/01/20 03:23:33;;;;;;;2.67;0.90;;;18.90;56.00;;;;;;5071295;28;20119;-62
2023/01/20 03:25:59;;;;;;;2.30;1.33;;;18.90;56.10;;;;;;5070924;28;20143;-62
2023/01/20 03:28:25;;;;;;;1.83;0.88;;;18.90;56.10;;;;;;5071373;28;20052;-62
2023/01/20 03:30:50;;;;;;;2.58;0.80;;;18.90;56.10;;;;;;5072549;28;20048;-62
2023/01/20 03:33:16;;;;;;;2.53;0.98;;;18.90;56.00;;;;;;5055240;28;20045;-62
2023/01/20 03:35:42;;;;;;;2.10;0.95;;;18.90;56.10;;;;;;5051123;28;20048;-62
2023/01/20 03:38:08;;;;;;;1.77;0.73;;;18.90;56.00;;;;;;5051992;28;20037;-62
2023/01/20 03:40:39;;;;;;;2.20;0.95;;;18.90;56.00;;;;;;5051670;28;20449;-63
2023/01/20 03:43:10;;;;;;;1.92;0.82;;;18.90;56.00;;;;;;5050632;28;20053;-63
2023/01/20 03:45:41;;;;;;;1.80;0.80;;;18.90;56.00;;;;;;5051041;28;20077;-63
2023/01/20 03:48:12;;;;;;;1.98;0.90;;;18.90;56.00;;;;;;5050453;28;20072;-63
2023/01/20 03:50:46;;;;;;;1.73;0.90;;;18.90;56.70;;;;;;5051120;28;20037;-62
2023/01/20 03:53:34;;;;;;;1.35;0.85;;;19.00;56.00;;;;;;5051066;28;20098;-62
2023/01/20 03:56:32;;;;;;;;;;;19.00;56.00;;;;;;5051609;28;20056;-62
2023/01/20 03:58:58;;;;;;;;;;;19.00;56.00;;;;;;5018348;28;19928;-62
2023/01/20 04:01:28;;;;;;;1.38;0.68;;;19.00;56.10;;;;;;5049927;28;19960;-62
2023/01/20 04:03:53;;;;;;;2.08;1.00;;;19.00;55.90;;;;;;5052147;28;20120;-63
2023/01/20 04:06:20;;;;;;;1.77;0.75;;;19.00;55.90;;;;;;5050994;28;20132;-63
2023/01/20 04:08:51;;;;;;;1.92;0.77;;;19.00;55.90;;;;;;5050156;28;20124;-63
2023/01/20 04:11:17;;;;;;;2.58;1.10;;;19.00;55.90;;;;;;5050653;28;20041;-63
2023/01/20 04:13:43;;;;;;;2.08;0.85;;;19.00;55.90;;;;;;5050400;28;20408;-63
2023/01/20 04:16:13;;;;;;;1.42;0.60;;;19.10;55.90;;;;;;5050771;28;20048;-63
2023/01/20 04:18:40;;;;;;;1.30;0.70;;;19.10;55.90;;;;;;5050773;28;20481;-62
2023/01/20 04:21:05;;;;;;;1.77;0.77;;;19.10;55.90;;;;;;5050897;28;20094;-63
2023/01/20 04:23:56;;;;;;;3.25;0.80;;;19.10;55.80;;;;;;5050776;28;20045;-62
2023/01/20 04:26:21;;;;;;;3.00;0.70;;;19.10;55.90;;;;;;5051582;28;20045;-63
2023/01/20 04:28:47;;;;;;;1.58;0.80;;;19.10;55.80;;;;;;5050998;28;20499;-63
2023/01/20 04:31:13;;;;;;;2.17;0.80;;;19.10;55.80;;;;;;5051797;28;20067;-63
2023/01/20 04:33:39;;;;;;;1.20;0.60;;;19.20;55.90;;;;;;5051986;28;20580;-63
2023/01/20 04:36:06;;;;;;;1.80;0.77;;;19.20;55.80;;;;;;5046052;28;20045;-62
2023/01/20 04:38:31;;;;;;;1.20;0.60;;;19.20;55.80;;;;;;5050464;28;20396;-63
2023/01/20 04:40:57;;;;;;;0.95;0.50;;;19.20;55.80;;;;;;5051878;28;20095;-61
2023/01/20 04:43:22;;;;;;;1.00;0.60;;;19.20;55.70;;;;;;5049054;28;20075;-61
2023/01/20 04:45:48;;;;;;;0.82;0.60;;;19.20;55.70;;;;;;5051829;28;20040;-61
2023/01/20 04:48:13;;;;;;;1.45;0.68;;;19.20;55.70;;;;;;5051747;28;20496;-61
2023/01/20 04:50:39;;;;;;;1.13;0.70;;;19.20;55.70;;;;;;5052124;28;20111;-61
2023/01/20 04:53:05;;;;;;;1.27;0.70;;;19.20;55.70;;;;;;5055987;28;20045;-61
2023/01/20 04:55:32;;;;;;;1.10;0.70;;;19.30;55.70;;;;;;5069810;28;20072;-61
2023/01/20 04:57:57;;;;;;;0.73;0.50;;;19.30;55.70;;;;;;5073251;28;20040;-61
2023/01/20 05:00:23;;;;;;;1.00;0.50;;;19.30;55.70;;;;;;5053181;28;20053;-61
2023/01/20 05:02:49;;;;;;;1.63;0.70;;;19.30;55.60;;;;;;5052337;28;20044;-61
2023/01/20 05:05:14;;;;;;;1.08;0.52;;;19.30;55.60;;;;;;5053149;28;20044;-61
2023/01/20 05:07:40;;;;;;;0.93;0.65;;;19.30;55.60;;;;;;5055392;28;20049;-62
2023/01/20 05:10:06;;;;;;;1.05;0.60;;;19.30;55.60;;;;;;5054729;28;20049;-61
2023/01/20 05:12:31;;;;;;;0.60;0.43;;;19.30;55.60;;;;;;5054331;28;20041;-61
2023/01/20 05:14:57;;;;;;;1.20;0.52;;;19.30;55.60;;;;;;5055127;28;20408;-61
2023/01/20 05:17:22;;;;;;;1.50;0.63;;;19.30;55.60;;;;;;5053803;28;20187;-61
2023/01/20 05:19:48;;;;;;;1.58;0.60;;;19.30;55.50;;;;;;5054208;28;20045;-61
2023/01/20 05:22:13;;;;;;;1.70;0.93;;;19.40;55.60;;;;;;5054695;28;20045;-61
2023/01/20 05:24:39;;;;;;;1.00;0.65;;;19.40;55.60;;;;;;5054958;28;20531;-61
2023/01/20 05:27:05;;;;;;;1.88;0.60;;;19.40;55.50;;;;;;5041731;28;20045;-61
2023/01/20 05:29:30;;;;;;;1.55;0.70;;;19.40;55.50;;;;;;5074447;28;20045;-61
2023/01/20 05:31:56;;;;;;;0.80;0.60;;;19.40;55.50;;;;;;5073869;28;20123;-61
2023/01/20 05:34:21;;;;;;;1.20;0.50;;;19.40;55.50;;;;;;5074382;28;20050;-62
2023/01/20 05:36:52;;;;;;;0.98;0.47;;;19.40;55.50;;;;;;5075127;28;20124;-62
2023/01/20 05:39:17;;;;;;;0.75;0.50;;;19.40;55.40;;;;;;5072396;28;20048;-62
2023/01/20 05:41:45;;;;;;;1.40;0.60;;;19.40;55.40;;;;;;5074741;28;20047;-62
2023/01/20 05:44:11;;;;;;;1.10;0.60;;;19.40;55.40;;;;;;5074454;28;20527;-62
2023/01/20 05:46:36;;;;;;;1.17;0.70;;;19.50;55.40;;;;;;5074037;28;20376;-63
2023/01/20 05:49:02;;;;;;;1.00;0.57;;;19.50;55.40;;;;;;5074733;28;20090;-63
2023/01/20 05:51:28;;;;;;;1.20;0.68;;;19.50;55.40;;;;;;5074486;28;20036;-62
2023/01/20 05:53:53;;;;;;;0.88;0.50;;;19.50;55.40;;;;;;5063421;28;20052;-63
2023/01/20 05:56:19;;;;;;;2.20;0.60;;;19.50;55.40;;;;;;5049209;28;20048;-63
2023/01/20 05:58:44;;;;;;;1.52;0.50;;;19.50;55.30;;;;;;5053651;28;20048;-62
2023/01/20 06:01:11;;;;;;;1.67;0.50;;;19.50;55.30;;;;;;5053384;28;20041;-62
2023/01/20 06:03:37;;;;;;;0.82;0.57;;;19.50;55.30;;;;;;5054283;28;20041;-62
2023/01/20 06:06:03;;;;;;;1.20;0.60;;;19.50;55.30;;;;;;5054026;28;20196;-63
2023/01/20 06:08:29;;;;;;;1.35;0.70;;;19.50;55.30;;;;;;5053058;28;20102;-63
2023/01/20 06:10:55;;;;;;;0.70;0.60;;;19.50;55.30;;;;;;5054348;28;20052;-63
2023/01/20 06:13:20;;;;;;;1.02;0.60;;;19.50;55.30;;;;;;5053463;28;20132;-62
2023/01/20 06:15:53;;;;;;;0.55;0.43;;;19.60;55.30;;;;;;5053596;28;20056;-62
2023/01/20 06:18:19;;;;;;;1.05;0.60;;;19.60;55.30;;;;;;5053998;28;20171;-62
2023/01/20 06:20:45;;;;;;;0.93;0.60;;;19.60;55.20;;;;;;5053933;28;20048;-62
2023/01/20 06:23:10;;;;;;;0.57;0.45;;;19.60;55.30;;;;;;5052881;28;20053;-62
2023/01/20 06:25:36;;;;;;;1.20;0.60;;;19.60;55.30;;;;;;5054106;28;20044;-62
2023/01/20 06:28:02;;;;;;;1.08;0.50;;;19.60;55.20;;;;;;5053390;28;20085;-62
2023/01/20 06:30:27;;;;;;;1.08;0.60;;;19.60;55.20;;;;;;5052495;28;20071;-62
2023/01/20 06:32:53;;;;;;;0.82;0.50;;;19.60;55.20;;;;;;5053818;28;20091;-62
2023/01/20 06:35:20;;;;;;;1.30;0.70;;;19.60;55.20;;;;;;5052301;28;20087;-63
2023/01/20 06:37:45;;;;;;;1.00;0.50;;;19.60;55.20;;;;;;5053804;28;20049;-63
2023/01/20 06:40:11;;;;;;;1.30;0.60;;;19.60;55.10;;;;;;5053388;28;20041;-62
2023/01/20 06:42:37;;;;;;;0.80;0.50;;;19.60;55.10;;;;;;5052893;28;20135;-63
2023/01/20 06:45:02;;;;;;;1.08;0.73;;;19.60;55.10;;;;;;5053413;28;20051;-62
2023/01/20 06:47:28;;;;;;;1.55;0.70;;;19.60;55.10;;;;;;5052939;28;20376;-63
2023/01/20 06:49:54;;;;;;;0.95;0.60;;;19.70;55.10;;;;;;5052748;28;20090;-63
2023/01/20 06:52:19;;;;;;;1.52;0.70;;;19.70;55.10;;;;;;5053423;28;20068;-63
2023/01/20 06:54:45;;;;;;;0.73;0.52;;;19.70;55.00;;;;;;5053303;28;20047;-62
2023/01/20 06:57:10;;;;;;;1.38;0.60;;;19.70;55.10;;;;;;5052434;28;20037;-63
2023/01/20 06:59:36;;;;;;;0.90;0.60;;;19.70;55.10;;;;;;5052874;28;20389;-63
2023/01/20 07:02:01;;;;;;;1.42;0.60;;;19.70;55.10;;;;;;5053416;28;20206;-62
2023/01/20 07:04:27;;;;;;;1.90;0.82;;;19.70;55.00;;;;;;5051625;28;20098;-62
2023/01/20 07:06:53;;;;;;;1.33;0.70;;;19.70;55.00;;;;;;5053080;28;20044;-63
2023/01/20 07:09:18;;;;;;;0.85;0.50;;;19.70;55.00;;;;;;5053015;28;20063;-63
2023/01/20 07:11:44;;;;;;;1.40;0.57;;;19.70;55.40;;;;;;5052191;28;20044;-63
2023/01/20 07:14:09;;;;;;;1.25;0.60;;;19.70;54.90;;;;;;5052160;28;20067;-63
2023/01/20 07:16:35;;;;;;;1.98;0.60;;;19.70;55.00;;;;;;5053260;28;20048;-63
2023/01/20 07:19:00;;;;;;;3.33;0.57;;;19.70;54.90;;;;;;5051856;28;20036;-63
2023/01/20 07:21:26;;;;;;;2.88;0.77;;;19.70;54.90;;;;;;5052599;28;20080;-63
2023/01/20 07:23:52;;;;;;;1.88;0.77;;;19.70;54.80;;;;;;5052707;28;20128;-63
2023/01/20 07:26:19;;;;;;;2.63;0.77;;;19.70;54.80;;;;;;5061617;28;20123;-63
2023/01/20 07:28:45;;;;;;;2.15;0.73;;;19.80;54.80;;;;;;5068130;28;20083;-62
2023/01/20 07:31:13;;;;;;;4.30;0.90;;;19.70;54.70;;;;;;5072281;28;20456;-63
2023/01/20 07:33:39;;;;;;;2.92;1.08;;;19.70;54.70;;;;;;5072019;28;20170;-63
2023/01/20 07:36:05;;;;;;;4.78;0.93;;;19.70;54.80;;;;;;5072078;28;20064;-63
2023/01/20 07:38:31;;;;;;;2.75;0.70;;;19.70;54.90;;;;;;5071111;28;20037;-62
2023/01/20 07:41:01;;;;;;;3.97;0.88;;;19.70;54.90;;;;;;5072851;28;20337;-63
2023/01/20 07:43:27;;;;;;;3.65;1.02;;;19.70;55.10;;;;;;5072416;28;20499;-63
2023/01/20 07:45:56;;;;;;;3.33;0.90;;;19.70;55.20;;;;;;5071652;28;20040;-63
2023/01/20 07:48:22;;;;;;;2.42;1.08;;;19.80;55.40;;;;;;5070863;28;20043;-63
2023/01/20 07:50:48;;;;;;;1.70;0.60;;;19.80;55.40;;;;;;5072424;28;20040;-62
2023/01/20 07:53:13;;;;;;;2.58;0.85;;;19.80;55.60;;;;;;5071587;28;20033;-62
2023/01/20 07:55:39;;;;;;;2.55;0.90;;;19.80;55.80;;;;;;5072368;28;20040;-63
2023/01/20 07:58:04;;;;;;;1.70;0.80;;;19.80;55.80;;;;;;5070749;28;20463;-63
2023/01/20 08:00:30;;;;;;;3.28;0.80;;;19.90;56.00;;;;;;5063621;28;20442;-62
2023/01/20 08:02:55;;;;;;;2.40;0.90;;;19.90;56.10;;;;;;5052326;28;20045;-62
2023/01/20 08:05:21;;;;;;;4.97;1.10;;;19.90;56.10;;;;;;5051863;28;20037;-63
2023/01/20 08:07:50;;;;;;;8.10;1.10;;;19.90;56.20;;;;;;5051131;28;20396;-63
2023/01/20 08:10:16;;;;;;;2.33;0.85;;;19.90;56.30;;;;;;5052036;28;20045;-62
2023/01/20 08:12:41;;;;;;;2.60;0.70;;;19.90;56.30;;;;;;5051374;28;20040;-62
2023/01/20 08:15:08;;;;;;;3.17;0.93;;;19.90;56.40;;;;;;5050774;28;20053;-62
2023/01/20 08:17:33;;;;;;;2.72;0.85;;;19.90;56.40;;;;;;5051575;28;20496;-64
2023/01/20 08:19:59;;;;;;;2.40;1.23;;;19.90;56.40;;;;;;5048182;28;20029;-64
2023/01/20 08:22:24;;;;;;;2.10;1.08;;;20.00;56.60;;;;;;5047613;28;20095;-64
2023/01/20 08:24:50;;;;;;;3.35;1.60;;;19.90;56.50;;;;;;5049770;28;20037;-64
2023/01/20 08:27:16;;;;;;;2.30;1.30;;;20.00;56.10;;;;;;5069235;28;20064;-62
2023/01/20 08:29:41;;;;;;;3.03;1.40;;;19.90;55.80;;;;;;5052483;28;20044;-63
2023/01/20 08:32:07;;;;;;;2.58;1.15;;;20.00;55.90;;;;;;5052904;28;20128;-63
2023/01/20 08:34:33;;;;;;;3.60;1.40;;;20.00;56.00;;;;;;5052691;28;20609;-64
2023/01/20 08:36:58;;;;;;;4.97;1.50;;;20.00;56.10;;;;;;5053401;28;20037;-62
2023/01/20 08:39:24;;;;;;;2.85;1.10;;;20.00;56.20;;;;;;5053452;28;20401;-63
2023/01/20 08:41:50;;;;;;;1.83;1.05;;;20.00;56.20;;;;;;5052047;28;20041;-62
2023/01/20 08:44:16;;;;;;;3.13;0.90;;;20.00;56.20;;;;;;5053206;28;20178;-62
2023/01/20 08:46:42;;;;;;;3.28;1.00;;;20.00;56.30;;;;;;5053458;28;20103;-62
2023/01/20 08:49:10;;;;;;;2.90;0.88;;;20.00;56.30;;;;;;5052310;28;20037;-62
2023/01/20 08:51:35;;;;;;;4.05;1.30;;;20.00;56.30;;;;;;5053994;28;20045;-61
2023/01/20 08:54:01;;;;;;;2.70;1.40;;;20.00;56.30;;;;;;5052378;28;21012;-62
2023/01/20 08:56:27;;;;;;;2.65;1.10;;;20.10;56.30;;;;;;5052164;28;20137;-62
2023/01/20 08:58:53;;;;;;;1.63;0.93;;;20.10;56.40;;;;;;5050764;28;20033;-62
2023/01/20 09:01:21;;;;;;;2.47;1.00;;;20.10;56.40;;;;;;5045850;28;20041;-62
2023/01/20 09:03:47;;;;;;;;;;;20.10;56.40;;;;;;5052054;28;20407;-62
2023/01/20 09:06:13;;;;;;;1.88;1.00;;;20.10;56.40;;;;;;5053334;28;20391;-62
2023/01/20 09:08:38;;;;;;;2.10;1.00;;;20.10;56.40;;;;;;5053105;28;20140;-62
2023/01/20 09:11:15;;;;;;;1.77;1.00;;;20.10;56.50;;;;;;5052742;28;20047;-62
2023/01/20 09:13:40;;;;;;;2.53;1.25;;;20.10;56.40;;;;;;5052866;28;20057;-62
2023/01/20 09:16:07;;;;;;;2.50;1.00;;;20.10;56.40;;;;;;5053078;28;20053;-63
2023/01/20 09:18:33;;;;;;;2.42;1.00;;;20.10;56.40;;;;;;5051719;28;20147;-63
2023/01/20 09:20:59;;;;;;;2.85;1.20;;;20.10;56.40;;;;;;5052862;28;20124;-63
2023/01/20 09:23:25;;;;;;;2.53;1.10;;;20.10;56.30;;;;;;5052556;28;20116;-63
2023/01/20 09:25:50;;;;;;;2.58;1.33;;;20.10;56.20;;;;;;5052903;28;20045;-63
2023/01/20 09:28:16;;;;;;;1.58;1.10;;;20.10;56.20;;;;;;5054477;28;20047;-64
2023/01/20 09:30:42;;;;;;;2.67;1.00;;;20.10;56.20;;;;;;5055336;28;20102;-64
2023/01/20 09:33:11;;;;;;;3.05;1.67;;;20.10;56.30;;;;;;5054450;28;20476;-63
2023/01/20 09:35:36;;;;;;;2.53;1.30;;;20.10;56.40;;;;;;5054723;28;20044;-64
2023/01/20 09:44:07;;;;;;;4.18;1.30;;;20.10;56.70;;;;;;5053852;28;20049;-64
2023/01/20 09:46:36;;;;;;;2.50;1.40;;;20.10;56.70;;;;;;5052439;28;20059;-64
2023/01/20 09:55:16;;;;;;;3.38;1.20;;;20.00;56.60;;;;;;5053299;28;20049;-65
2023/01/20 09:57:42;;;;;;;3.97;1.38;;;20.00;56.60;;;;;;5052936;28;20647;-64
2023/01/20 10:00:12;;;;;;;3.92;1.50;;;20.00;56.70;;;;;;5035618;28;20044;-64
2023/01/20 10:02:38;;;;;;;2.95;1.58;;;20.00;56.70;;;;;;5054547;28;20048;-63
2023/01/20 10:05:11;;;;;;;2.40;1.30;;;20.00;56.70;;;;;;5064633;28;20040;-63
2023/01/20 10:07:55;;;;;;;3.60;1.33;;;20.00;56.70;;;;;;5067624;28;20096;-64
2023/01/20 10:10:23;;;;;;;3.90;1.67;;;20.00;56.70;;;;;;5072618;28;20056;-64
2023/01/20 10:13:09;;;;;;;3.83;1.60;;;20.00;56.70;;;;;;5053851;28;20041;-63
2023/01/20 10:15:36;;;;;;;3.00;1.50;;;20.00;56.70;;;;;;5052208;28;20070;-64
2023/01/20 10:18:04;;;;;;;3.85;2.05;;;19.90;56.70;;;;;;5056682;28;20047;-63
2023/01/20 10:20:45;;;;;;;3.28;1.65;;;19.90;56.70;;;;;;5072563;28;20063;-62
2023/01/20 10:23:18;;;;;;;3.05;1.50;;;19.90;56.70;;;;;;5073747;28;20075;-63
2023/01/20 10:26:17;;;;;;;4.30;1.77;;;19.90;56.70;;;;;;5042910;28;20440;-62
2023/01/20 10:28:46;;;;;;;4.00;1.50;;;19.90;56.60;;;;;;4996933;28;20123;-60
2023/01/20 10:31:13;;;;;;;5.30;1.65;;;19.90;56.70;;;;;;5043968;28;20153;-61
2023/01/20 10:33:40;;;;;;;4.05;2.00;;;19.90;56.60;;;;;;5048004;28;20095;-61
2023/01/20 10:36:11;;;;;;;4.60;2.10;;;19.90;56.50;;;;;;5040524;28;20037;-61
2023/01/20 10:38:51;;;;;;;4.15;1.75;;;19.90;56.50;;;;;;5044671;28;20056;-62
2023/01/20 10:41:37;;;;;;;4.47;2.17;;;19.90;56.40;;;;;;5028016;28;20037;-61
2023/01/20 10:44:04;;;;;;;5.50;2.05;;;19.90;56.20;;;;;;5031700;28;20037;-62
2023/01/20 10:46:39;;;;;;;8.00;2.28;;;19.80;56.10;;;;;;5041903;28;20485;-65
2023/01/20 10:49:33;;;;;;;5.20;2.10;;;19.80;56.20;;;;;;5051947;28;20095;-64
2023/01/20 10:52:28;;;;;;;6.00;2.20;;;19.80;56.40;;;;;;5042274;28;20079;-65
2023/01/20 10:55:26;;;;;;;3.90;2.10;;;19.80;56.50;;;;;;5051349;28;20044;-65
2023/01/20 10:58:21;;;;;;;4.70;2.05;;;19.80;56.50;;;;;;5055536;28;20044;-64
2023/01/20 11:00:48;;;;;;;5.15;2.40;;;19.80;56.50;;;;;;5047632;28;20599;-64
2023/01/20 11:03:15;;;;;;;3.95;2.22;;;19.80;56.50;;;;;;5049248;28;20037;-65
2023/01/20 11:05:41;;;;;;;7.18;2.33;;;19.80;56.50;;;;;;5051476;28;20037;-66
2023/01/20 11:08:16;;;;;;;4.32;2.40;;;19.80;56.50;;;;;;5048016;28;20063;-64
2023/01/20 11:10:41;;;;;;;8.15;2.80;;;19.80;56.60;;;;;;5029020;28;20128;-64
2023/01/20 11:13:08;;;;;;;5.45;2.70;;;19.80;56.70;;;;;;5040369;28;20132;-64
2023/01/20 11:15:36;;;;;;;3.92;2.10;;;19.80;56.70;;;;;;5049146;28;20041;-63
2023/01/20 11:18:13;;;;;;;4.50;2.35;;;19.80;56.70;;;;;;5047708;28;20139;-63
2023/01/20 11:20:46;;;;;;;6.72;2.33;;;19.80;56.70;;;;;;5048145;28;20048;-62
2023/01/20 11:23:48;;;;;;;7.72;2.50;;;19.90;56.70;;;;;;5048337;28;20037;-63
2023/01/20 11:26:24;;;;;;;7.22;2.85;;;19.90;56.70;;;;;;5046240;28;20094;-63
2023/01/20 11:29:01;;;;;;;6.15;2.50;;;19.90;56.70;;;;;;5047880;28;20033;-63
2023/01/20 11:31:46;;;;;;;5.63;2.50;;;19.90;56.70;;;;;;5046184;28;20193;-64
2023/01/20 11:34:26;;;;;;;8.98;2.42;;;19.90;56.60;;;;;;5048893;28;20045;-63
2023/01/20 11:37:03;;;;;;;7.90;2.53;;;19.90;56.60;;;;;;5048122;28;20503;-63
2023/01/20 11:39:34;;;;;;;5.47;2.67;;;19.90;56.60;;;;;;5048743;28;20519;-63
2023/01/20 11:42:15;;;;;;;5.95;2.63;;;19.90;56.60;;;;;;5049953;28;20033;-64
2023/01/20 11:44:51;;;;;;;6.35;2.58;;;19.90;56.60;;;;;;5065902;28;20079;-63
2023/01/20 11:47:35;;;;;;;5.05;2.58;;;19.90;56.50;;;;;;5049491;28;20745;-62
2023/01/20 11:50:11;;;;;;;5.53;2.53;;;19.90;56.40;;;;;;5051815;28;20063;-61
2023/01/20 11:52:38;;;;;;;7.97;2.90;;;19.90;56.40;;;;;;5030059;28;20045;-62
2023/01/20 11:55:13;;;;;;;8.60;2.88;;;19.90;56.30;;;;;;5031110;28;20120;-62
2023/01/20 11:57:54;;;;;;;6.18;2.60;;;19.90;56.20;;;;;;5039943;28;20473;-61
2023/01/20 12:00:41;;;;;;;5.68;2.65;;;20.00;56.20;;;;;;5049799;28;20463;-61
2023/01/20 12:03:16;;;;;;;4.63;2.50;;;19.90;56.20;;;;;;5052380;28;20049;-60
2023/01/20 12:06:08;;;;;;;7.45;2.70;;;20.00;56.20;;;;;;5051403;28;20105;-62
2023/01/20 12:08:45;;;;;;;6.88;2.67;;;20.00;56.10;;;;;;5050577;28;20123;-62
2023/01/20 12:11:11;;;;;;;6.55;2.90;;;19.90;56.00;;;;;;5050926;28;20037;-61
2023/01/20 12:14:18;;;;;;;9.23;2.55;;;19.90;56.00;;;;;;5050033;28;20059;-61
2023/01/20 12:16:25;;;;;;;6.88;2.83;;;19.90;56.10;;;;;;5045423;28;20521;-61
2023/01/20 12:18:54;;;;;;;9.27;3.50;;;19.90;56.10;;;;;;5047815;28;20175;-64
2023/01/20 12:21:20;;;;;;;8.05;3.17;;;19.90;55.90;;;;;;5047615;28;20405;-62
2023/01/20 12:23:57;;;;;;;6.85;2.85;;;19.90;56.00;;;;;;5049421;28;20041;-65
2023/01/20 12:26:23;;;;;;;6.35;3.10;;;19.90;56.10;;;;;;5049115;28;20041;-64
2023/01/20 12:29:04;;;;;;;7.72;3.03;;;19.90;56.10;;;;;;5048706;28;20504;-64
2023/01/20 12:31:30;;;;;;;7.68;3.08;;;19.90;56.20;;;;;;5047346;28;20045;-63
2023/01/20 12:34:09;;;;;;;7.20;3.08;;;19.90;56.20;;;;;;5043364;28;20033;-64
2023/01/20 12:37:11;;;;;;;9.13;3.35;;;19.90;56.30;;;;;;5047689;28;20045;-63
2023/01/20 12:40:03;;;;;;;6.28;3.28;;;19.90;56.40;;;;;;5045903;28;20131;-63
2023/01/20 12:42:52;;;;;;;7.57;3.15;;;19.80;56.40;;;;;;5047606;28;20035;-65
2023/01/20 12:45:27;;;;;;;8.52;2.70;;;19.90;57.20;;;;;;5047766;28;20052;-63
2023/01/20 12:48:18;;;;;;;6.25;2.72;;;19.90;56.50;;;;;;5046305;28;20040;-64
2023/01/20 12:50:58;;;;;;;10.43;3.00;;;19.90;56.70;;;;;;5048010;28;20106;-64
2023/01/20 12:53:55;;;;;;;5.97;2.67;;;19.90;56.70;;;;;;5048215;28;20041;-65
2023/01/20 12:56:38;;;;;;;8.35;3.00;;;19.90;56.80;;;;;;5048641;28;20059;-64
2023/01/20 12:59:23;;;;;;;5.80;2.70;;;19.90;56.70;;;;;;5048158;28;20056;-64
2023/01/20 13:02:20;;;;;;;6.45;2.80;;;19.90;56.80;;;;;;5048623;28;20491;-66
2023/01/20 13:05:10;;;;;;;12.90;3.20;;;19.90;56.60;;;;;;5063963;28;20060;-65
2023/01/20 13:07:48;;;;;;;6.88;2.55;;;19.90;56.60;;;;;;5049528;28;20088;-64
2023/01/20 13:10:27;;;;;;;12.75;3.05;;;19.90;56.60;;;;;;5048637;28;20120;-64
2023/01/20 13:13:07;;;;;;;6.35;3.08;;;20.00;56.70;;;;;;5047306;28;20045;-64
2023/01/20 13:15:47;;;;;;;8.60;3.10;;;20.00;56.60;;;;;;5052640;28;20048;-66